sensor_id;sensor_type;location;lat;lon;timestamp;pressure;altitude;pressure_sealevel;temperature;humidity
6194;BME280;3130;41.564;23.280;2023-12-07T00:01:07;98495.28;;;9.17;nan
6194;BME280;3130;41.564;23.280;2023-12-07T00:03:34;98496.56;;;9.10;nan
6194;BME280;3130;41.564;23.280;2023-12-07T00:06:03;98465.06;;;8.96;nan
6194;BME280;3130;41.564;23.280;2023-12-07T00:08:30;98393.59;;;8.52;nan
6194;BME280;3130;41.564;23.280;2023-12-07T00:10:57;98513.00;;;9.20;nan
6194;BME280;3130;41.564;23.280;2023-12-07T00:13:24;98514.53;;;9.22;nan
6194;BME280;3130;41.564;23.280;2023-12-07T00:15:52;98505.59;;;9.29;nan
6194;BME280;3130;41.564;23.280;2023-12-07T00:18:19;98511.16;;;9.36;nan
6194;BME280;3130;41.564;23.280;2023-12-07T00:20:46;98506.78;;;9.10;nan
6194;BME280;3130;41.564;23.280;2023-12-07T00:23:15;98516.09;;;9.11;nan
6194;BME280;3130;41.564;23.280;2023-12-07T00:25:42;98520.84;;;9.17;nan
6194;BME280;3130;41.564;23.280;2023-12-07T00:28:11;98516.03;;;9.12;nan
6194;BME280;3130;41.564;23.280;2023-12-07T00:30:39;98520.13;;;9.15;nan
6194;BME280;3130;41.564;23.280;2023-12-07T00:33:07;98522.25;;;8.95;nan
6194;BME280;3130;41.564;23.280;2023-12-07T00:35:35;98526.16;;;9.00;nan
6194;BME280;3130;41.564;23.280;2023-12-07T00:38:02;98516.28;;;8.94;nan
6194;BME280;3130;41.564;23.280;2023-12-07T00:40:33;98454.38;;;8.47;nan
6194;BME280;3130;41.564;23.280;2023-12-07T00:43:02;98527.78;;;8.73;nan
6194;BME280;3130;41.564;23.280;2023-12-07T00:45:30;98508.88;;;8.62;nan
6194;BME280;3130;41.564;23.280;2023-12-07T00:47:57;98535.94;;;8.94;nan
6194;BME280;3130;41.564;23.280;2023-12-07T00:50:24;98533.28;;;8.95;nan
6194;BME280;3130;41.564;23.280;2023-12-07T00:52:51;98546.44;;;9.03;nan
6194;BME280;3130;41.564;23.280;2023-12-07T00:55:19;98535.66;;;9.12;nan
6194;BME280;3130;41.564;23.280;2023-12-07T00:57:47;98540.41;;;9.18;nan
6194;BME280;3130;41.564;23.280;2023-12-07T01:00:15;98539.50;;;9.19;nan
6194;BME280;3130;41.564;23.280;2023-12-07T01:02:42;98543.47;;;9.23;nan
6194;BME280;3130;41.564;23.280;2023-12-07T01:05:09;98523.78;;;9.11;nan
6194;BME280;3130;41.564;23.280;2023-12-07T01:07:37;98544.44;;;9.22;nan
6194;BME280;3130;41.564;23.280;2023-12-07T01:10:05;98540.84;;;9.24;nan
6194;BME280;3130;41.564;23.280;2023-12-07T01:12:32;98542.09;;;9.31;nan
6194;BME280;3130;41.564;23.280;2023-12-07T01:15:03;98536.28;;;9.29;nan
6194;BME280;3130;41.564;23.280;2023-12-07T01:17:30;98536.66;;;9.23;nan
6194;BME280;3130;41.564;23.280;2023-12-07T01:19:57;98539.00;;;8.71;nan
6194;BME280;3130;41.564;23.280;2023-12-07T01:22:24;98521.59;;;8.34;nan
6194;BME280;3130;41.564;23.280;2023-12-07T01:24:51;98531.69;;;8.21;nan
6194;BME280;3130;41.564;23.280;2023-12-07T01:27:19;98511.72;;;7.98;nan
6194;BME280;3130;41.564;23.280;2023-12-07T01:29:46;98530.44;;;8.28;nan
6194;BME280;3130;41.564;23.280;2023-12-07T01:32:14;98527.34;;;8.37;nan
6194;BME280;3130;41.564;23.280;2023-12-07T01:34:42;98525.00;;;8.48;nan
6194;BME280;3130;41.564;23.280;2023-12-07T01:37:09;98522.47;;;8.62;nan
6194;BME280;3130;41.564;23.280;2023-12-07T01:39:36;98522.84;;;8.70;nan
6194;BME280;3130;41.564;23.280;2023-12-07T01:42:03;98519.03;;;8.77;nan
6194;BME280;3130;41.564;23.280;2023-12-07T01:44:30;98523.22;;;8.64;nan
6194;BME280;3130;41.564;23.280;2023-12-07T01:46:58;98518.25;;;8.47;nan
6194;BME280;3130;41.564;23.280;2023-12-07T01:49:27;98509.16;;;8.28;nan
6194;BME280;3130;41.564;23.280;2023-12-07T01:51:55;98514.16;;;8.15;nan
6194;BME280;3130;41.564;23.280;2023-12-07T01:54:23;98513.91;;;8.04;nan
6194;BME280;3130;41.564;23.280;2023-12-07T01:56:51;98509.19;;;8.12;nan
6194;BME280;3130;41.564;23.280;2023-12-07T01:59:18;98509.91;;;7.85;nan
6194;BME280;3130;41.564;23.280;2023-12-07T02:01:45;98513.47;;;7.67;nan
6194;BME280;3130;41.564;23.280;2023-12-07T02:04:13;98489.78;;;7.50;nan
6194;BME280;3130;41.564;23.280;2023-12-07T02:06:42;98490.88;;;7.46;nan
6194;BME280;3130;41.564;23.280;2023-12-07T02:09:09;98508.16;;;7.41;nan
6194;BME280;3130;41.564;23.280;2023-12-07T02:11:36;98498.34;;;7.33;nan
6194;BME280;3130;41.564;23.280;2023-12-07T02:14:03;98493.19;;;7.19;nan
6194;BME280;3130;41.564;23.280;2023-12-07T02:16:35;98488.66;;;7.09;nan
6194;BME280;3130;41.564;23.280;2023-12-07T02:19:16;98494.66;;;7.08;nan
6194;BME280;3130;41.564;23.280;2023-12-07T02:21:54;98485.00;;;7.13;nan
6194;BME280;3130;41.564;23.280;2023-12-07T02:24:26;98480.00;;;7.11;nan
6194;BME280;3130;41.564;23.280;2023-12-07T02:26:55;98478.84;;;7.17;nan
6194;BME280;3130;41.564;23.280;2023-12-07T02:29:23;98484.78;;;7.17;nan
6194;BME280;3130;41.564;23.280;2023-12-07T02:31:50;98487.75;;;7.10;nan
6194;BME280;3130;41.564;23.280;2023-12-07T02:34:17;98462.88;;;6.83;nan
6194;BME280;3130;41.564;23.280;2023-12-07T02:36:47;98472.22;;;6.82;nan
6194;BME280;3130;41.564;23.280;2023-12-07T02:39:15;98475.69;;;6.81;nan
6194;BME280;3130;41.564;23.280;2023-12-07T02:41:45;98443.78;;;6.74;nan
6194;BME280;3130;41.564;23.280;2023-12-07T02:44:15;98462.88;;;6.83;nan
6194;BME280;3130;41.564;23.280;2023-12-07T02:46:43;98460.38;;;6.81;nan
6194;BME280;3130;41.564;23.280;2023-12-07T02:49:11;98452.19;;;6.76;nan
6194;BME280;3130;41.564;23.280;2023-12-07T02:51:39;98462.63;;;6.87;nan
6194;BME280;3130;41.564;23.280;2023-12-07T02:54:06;98456.97;;;6.97;nan
6194;BME280;3130;41.564;23.280;2023-12-07T02:56:33;98459.75;;;7.08;nan
6194;BME280;3130;41.564;23.280;2023-12-07T02:59:00;98457.81;;;7.13;nan
6194;BME280;3130;41.564;23.280;2023-12-07T03:01:29;98462.66;;;7.18;nan
6194;BME280;3130;41.564;23.280;2023-12-07T03:03:56;98467.34;;;7.25;nan
6194;BME280;3130;41.564;23.280;2023-12-07T03:06:24;98466.19;;;7.15;nan
6194;BME280;3130;41.564;23.280;2023-12-07T03:08:51;98461.00;;;7.17;nan
6194;BME280;3130;41.564;23.280;2023-12-07T03:11:18;98469.06;;;7.09;nan
6194;BME280;3130;41.564;23.280;2023-12-07T03:13:45;98423.66;;;6.85;nan
6194;BME280;3130;41.564;23.280;2023-12-07T03:16:12;98470.88;;;7.23;nan
6194;BME280;3130;41.564;23.280;2023-12-07T03:18:41;98474.25;;;7.39;nan
6194;BME280;3130;41.564;23.280;2023-12-07T03:21:08;98469.69;;;7.59;nan
6194;BME280;3130;41.564;23.280;2023-12-07T03:23:35;98485.00;;;7.75;nan
6194;BME280;3130;41.564;23.280;2023-12-07T03:26:03;98494.97;;;7.93;nan
6194;BME280;3130;41.564;23.280;2023-12-07T03:28:30;98498.06;;;7.69;nan
6194;BME280;3130;41.564;23.280;2023-12-07T03:30:58;98490.56;;;7.36;nan
6194;BME280;3130;41.564;23.280;2023-12-07T03:33:25;98491.03;;;7.27;nan
6194;BME280;3130;41.564;23.280;2023-12-07T03:35:53;98490.78;;;7.16;nan
6194;BME280;3130;41.564;23.280;2023-12-07T03:38:20;98494.22;;;7.00;nan
6194;BME280;3130;41.564;23.280;2023-12-07T03:40:48;98501.09;;;6.98;nan
6194;BME280;3130;41.564;23.280;2023-12-07T03:43:18;98483.50;;;6.94;nan
6194;BME280;3130;41.564;23.280;2023-12-07T03:45:45;98500.09;;;6.85;nan
6194;BME280;3130;41.564;23.280;2023-12-07T03:48:12;98494.66;;;6.76;nan
6194;BME280;3130;41.564;23.280;2023-12-07T03:50:40;98498.75;;;6.63;nan
6194;BME280;3130;41.564;23.280;2023-12-07T03:53:08;98480.81;;;6.64;nan
6194;BME280;3130;41.564;23.280;2023-12-07T03:55:36;98507.50;;;6.74;nan
6194;BME280;3130;41.564;23.280;2023-12-07T03:58:03;98505.91;;;6.72;nan
6194;BME280;3130;41.564;23.280;2023-12-07T04:00:31;98510.16;;;6.88;nan
6194;BME280;3130;41.564;23.280;2023-12-07T04:02:58;98510.44;;;6.82;nan
6194;BME280;3130;41.564;23.280;2023-12-07T04:05:26;98483.06;;;6.70;nan
6194;BME280;3130;41.564;23.280;2023-12-07T04:07:53;98504.41;;;6.85;nan
6194;BME280;3130;41.564;23.280;2023-12-07T04:10:21;98500.19;;;6.84;nan
6194;BME280;3130;41.564;23.280;2023-12-07T04:12:49;98491.66;;;6.85;nan
6194;BME280;3130;41.564;23.280;2023-12-07T04:15:18;98502.50;;;7.03;nan
6194;BME280;3130;41.564;23.280;2023-12-07T04:17:45;98507.44;;;6.91;nan
6194;BME280;3130;41.564;23.280;2023-12-07T04:20:12;98500.56;;;7.08;nan
6194;BME280;3130;41.564;23.280;2023-12-07T04:22:40;98485.31;;;6.92;nan
6194;BME280;3130;41.564;23.280;2023-12-07T04:25:08;98487.00;;;6.76;nan
6194;BME280;3130;41.564;23.280;2023-12-07T04:27:36;98479.13;;;6.65;nan
6194;BME280;3130;41.564;23.280;2023-12-07T04:30:04;98484.03;;;6.68;nan
6194;BME280;3130;41.564;23.280;2023-12-07T04:32:32;98515.03;;;6.76;nan
6194;BME280;3130;41.564;23.280;2023-12-07T04:34:59;98490.94;;;6.66;nan
6194;BME280;3130;41.564;23.280;2023-12-07T04:37:27;98524.03;;;6.83;nan
6194;BME280;3130;41.564;23.280;2023-12-07T04:39:54;98520.88;;;6.78;nan
6194;BME280;3130;41.564;23.280;2023-12-07T04:42:21;98511.91;;;6.71;nan
6194;BME280;3130;41.564;23.280;2023-12-07T04:44:50;98522.44;;;6.80;nan
6194;BME280;3130;41.564;23.280;2023-12-07T04:47:17;98525.84;;;6.81;nan
6194;BME280;3130;41.564;23.280;2023-12-07T04:49:44;98509.94;;;6.76;nan
6194;BME280;3130;41.564;23.280;2023-12-07T04:52:11;98532.28;;;7.03;nan
6194;BME280;3130;41.564;23.280;2023-12-07T04:54:38;98530.75;;;7.16;nan
6194;BME280;3130;41.564;23.280;2023-12-07T04:57:05;98524.66;;;7.18;nan
6194;BME280;3130;41.564;23.280;2023-12-07T04:59:33;98517.81;;;7.03;nan
6194;BME280;3130;41.564;23.280;2023-12-07T05:02:01;98514.34;;;7.04;nan
6194;BME280;3130;41.564;23.280;2023-12-07T05:04:29;98492.81;;;6.95;nan
6194;BME280;3130;41.564;23.280;2023-12-07T05:06:56;98519.72;;;7.15;nan
6194;BME280;3130;41.564;23.280;2023-12-07T05:09:23;98523.09;;;7.16;nan
6194;BME280;3130;41.564;23.280;2023-12-07T05:11:50;98531.22;;;7.22;nan
6194;BME280;3130;41.564;23.280;2023-12-07T05:14:17;98531.50;;;7.49;nan
6194;BME280;3130;41.564;23.280;2023-12-07T05:16:45;98535.59;;;7.67;nan
6194;BME280;3130;41.564;23.280;2023-12-07T05:19:15;98538.09;;;7.53;nan
6194;BME280;3130;41.564;23.280;2023-12-07T05:21:43;98515.13;;;7.22;nan
6194;BME280;3130;41.564;23.280;2023-12-07T05:24:11;98464.53;;;6.84;nan
6194;BME280;3130;41.564;23.280;2023-12-07T05:26:40;98537.22;;;7.21;nan
6194;BME280;3130;41.564;23.280;2023-12-07T05:29:07;98548.66;;;7.14;nan
6194;BME280;3130;41.564;23.280;2023-12-07T05:31:35;98542.22;;;7.07;nan
6194;BME280;3130;41.564;23.280;2023-12-07T05:34:03;98526.84;;;6.94;nan
6194;BME280;3130;41.564;23.280;2023-12-07T05:36:32;98550.03;;;7.04;nan
6194;BME280;3130;41.564;23.280;2023-12-07T05:39:00;98542.38;;;7.04;nan
6194;BME280;3130;41.564;23.280;2023-12-07T05:41:27;98545.47;;;6.94;nan
6194;BME280;3130;41.564;23.280;2023-12-07T05:43:54;98550.72;;;7.08;nan
6194;BME280;3130;41.564;23.280;2023-12-07T05:46:21;98542.78;;;6.97;nan
6194;BME280;3130;41.564;23.280;2023-12-07T05:48:48;98512.28;;;6.63;nan
6194;BME280;3130;41.564;23.280;2023-12-07T05:51:16;98539.84;;;6.72;nan
6194;BME280;3130;41.564;23.280;2023-12-07T05:53:47;98545.81;;;6.88;nan
6194;BME280;3130;41.564;23.280;2023-12-07T05:56:18;98545.47;;;6.94;nan
6194;BME280;3130;41.564;23.280;2023-12-07T05:58:46;98551.31;;;6.96;nan
6194;BME280;3130;41.564;23.280;2023-12-07T06:01:16;98547.72;;;7.00;nan
6194;BME280;3130;41.564;23.280;2023-12-07T06:03:44;98545.84;;;7.03;nan
6194;BME280;3130;41.564;23.280;2023-12-07T06:06:12;98549.72;;;7.10;nan
6194;BME280;3130;41.564;23.280;2023-12-07T06:08:39;98553.00;;;7.45;nan
6194;BME280;3130;41.564;23.280;2023-12-07T06:11:08;98555.06;;;7.69;nan
6194;BME280;3130;41.564;23.280;2023-12-07T06:13:35;98519.06;;;7.58;nan
6194;BME280;3130;41.564;23.280;2023-12-07T06:16:03;98543.84;;;7.87;nan
6194;BME280;3130;41.564;23.280;2023-12-07T06:18:30;98543.06;;;8.00;nan
6194;BME280;3130;41.564;23.280;2023-12-07T06:20:57;98550.88;;;8.13;nan
6194;BME280;3130;41.564;23.280;2023-12-07T06:23:25;98548.25;;;7.99;nan
6194;BME280;3130;41.564;23.280;2023-12-07T06:25:52;98558.13;;;8.20;nan
6194;BME280;3130;41.564;23.280;2023-12-07T06:28:20;98565.66;;;8.37;nan
6194;BME280;3130;41.564;23.280;2023-12-07T06:30:48;98563.97;;;8.52;nan
6194;BME280;3130;41.564;23.280;2023-12-07T06:33:15;98554.88;;;8.62;nan
6194;BME280;3130;41.564;23.280;2023-12-07T06:35:42;98559.72;;;8.66;nan
6194;BME280;3130;41.564;23.280;2023-12-07T06:38:09;98563.25;;;8.50;nan
6194;BME280;3130;41.564;23.280;2023-12-07T06:40:36;98478.63;;;8.11;nan
6194;BME280;3130;41.564;23.280;2023-12-07T06:43:04;98560.41;;;8.54;nan
6194;BME280;3130;41.564;23.280;2023-12-07T06:45:32;98565.38;;;8.71;nan
6194;BME280;3130;41.564;23.280;2023-12-07T06:47:59;98569.53;;;8.88;nan
6194;BME280;3130;41.564;23.280;2023-12-07T06:50:27;98566.97;;;9.01;nan
6194;BME280;3130;41.564;23.280;2023-12-07T06:52:54;98569.44;;;9.17;nan
6194;BME280;3130;41.564;23.280;2023-12-07T06:55:21;98579.22;;;9.38;nan
6194;BME280;3130;41.564;23.280;2023-12-07T06:57:49;98558.13;;;9.35;nan
6194;BME280;3130;41.564;23.280;2023-12-07T07:00:17;98590.44;;;9.50;nan
6194;BME280;3130;41.564;23.280;2023-12-07T07:02:47;98567.03;;;9.42;nan
6194;BME280;3130;41.564;23.280;2023-12-07T07:05:14;98582.88;;;9.48;nan
6194;BME280;3130;41.564;23.280;2023-12-07T07:07:41;98597.22;;;9.51;nan
6194;BME280;3130;41.564;23.280;2023-12-07T07:10:09;98590.09;;;9.56;nan
6194;BME280;3130;41.564;23.280;2023-12-07T07:12:38;98599.81;;;9.77;nan
6194;BME280;3130;41.564;23.280;2023-12-07T07:15:07;98594.22;;;9.85;nan
6194;BME280;3130;41.564;23.280;2023-12-07T07:17:35;98604.63;;;10.09;nan
6194;BME280;3130;41.564;23.280;2023-12-07T07:20:04;98602.94;;;10.22;nan
6194;BME280;3130;41.564;23.280;2023-12-07T07:22:32;98600.13;;;10.39;nan
6194;BME280;3130;41.564;23.280;2023-12-07T07:24:59;98607.63;;;10.55;nan
6194;BME280;3130;41.564;23.280;2023-12-07T07:27:27;98600.28;;;10.63;nan
6194;BME280;3130;41.564;23.280;2023-12-07T07:29:54;98591.75;;;10.50;nan
6194;BME280;3130;41.564;23.280;2023-12-07T07:32:21;98593.19;;;10.54;nan
6194;BME280;3130;41.564;23.280;2023-12-07T07:34:48;98608.47;;;10.55;nan
6194;BME280;3130;41.564;23.280;2023-12-07T07:37:17;98597.56;;;10.39;nan
6194;BME280;3130;41.564;23.280;2023-12-07T07:39:44;98616.34;;;10.52;nan
6194;BME280;3130;41.564;23.280;2023-12-07T07:42:12;98605.34;;;10.50;nan
6194;BME280;3130;41.564;23.280;2023-12-07T07:44:39;98624.38;;;10.60;nan
6194;BME280;3130;41.564;23.280;2023-12-07T07:47:07;98623.47;;;10.61;nan
6194;BME280;3130;41.564;23.280;2023-12-07T07:49:34;98625.00;;;10.64;nan
6194;BME280;3130;41.564;23.280;2023-12-07T07:52:01;98622.19;;;10.54;nan
6194;BME280;3130;41.564;23.280;2023-12-07T07:54:30;98624.81;;;10.40;nan
6194;BME280;3130;41.564;23.280;2023-12-07T07:56:57;98627.47;;;10.39;nan
6194;BME280;3130;41.564;23.280;2023-12-07T07:59:24;98632.41;;;10.42;nan
6194;BME280;3130;41.564;23.280;2023-12-07T08:01:51;98627.91;;;10.45;nan
6194;BME280;3130;41.564;23.280;2023-12-07T08:04:19;98628.13;;;10.42;nan
6194;BME280;3130;41.564;23.280;2023-12-07T08:06:46;98627.72;;;10.48;nan
6194;BME280;3130;41.564;23.280;2023-12-07T08:09:14;98627.31;;;10.54;nan
6194;BME280;3130;41.564;23.280;2023-12-07T08:11:43;98635.06;;;10.67;nan
6194;BME280;3130;41.564;23.280;2023-12-07T08:14:10;98632.72;;;10.76;nan
6194;BME280;3130;41.564;23.280;2023-12-07T08:16:41;98634.88;;;10.82;nan
6194;BME280;3130;41.564;23.280;2023-12-07T08:19:09;98648.75;;;10.92;nan
6194;BME280;3130;41.564;23.280;2023-12-07T08:21:36;98646.81;;;11.08;nan
6194;BME280;3130;41.564;23.280;2023-12-07T08:24:03;98637.78;;;11.02;nan
6194;BME280;3130;41.564;23.280;2023-12-07T08:26:31;98648.84;;;11.03;nan
6194;BME280;3130;41.564;23.280;2023-12-07T08:29:00;98634.09;;;10.94;nan
6194;BME280;3130;41.564;23.280;2023-12-07T08:31:27;98647.44;;;11.11;nan
6194;BME280;3130;41.564;23.280;2023-12-07T08:33:55;98560.16;;;10.62;nan
6194;BME280;3130;41.564;23.280;2023-12-07T08:36:22;98655.66;;;11.29;nan
6194;BME280;3130;41.564;23.280;2023-12-07T08:38:51;98644.47;;;11.30;nan
6194;BME280;3130;41.564;23.280;2023-12-07T08:41:18;98653.91;;;11.42;nan
6194;BME280;3130;41.564;23.280;2023-12-07T08:43:45;98651.53;;;11.51;nan
6194;BME280;3130;41.564;23.280;2023-12-07T08:46:14;98661.91;;;11.75;nan
6194;BME280;3130;41.564;23.280;2023-12-07T08:48:41;98623.28;;;11.51;nan
6194;BME280;3130;41.564;23.280;2023-12-07T08:51:09;98554.97;;;11.01;nan
6194;BME280;3130;41.564;23.280;2023-12-07T08:53:37;98660.19;;;11.63;nan
6194;BME280;3130;41.564;23.280;2023-12-07T08:56:05;98661.13;;;11.74;nan
6194;BME280;3130;41.564;23.280;2023-12-07T08:58:32;98663.97;;;11.82;nan
6194;BME280;3130;41.564;23.280;2023-12-07T09:00:59;98658.63;;;11.85;nan
6194;BME280;3130;41.564;23.280;2023-12-07T09:03:28;98644.19;;;11.95;nan
6194;BME280;3130;41.564;23.280;2023-12-07T09:05:57;98623.63;;;11.95;nan
6194;BME280;3130;41.564;23.280;2023-12-07T09:08:24;98652.81;;;12.30;nan
6194;BME280;3130;41.564;23.280;2023-12-07T09:10:52;98651.63;;;12.23;nan
6194;BME280;3130;41.564;23.280;2023-12-07T09:13:19;98644.72;;;12.23;nan
6194;BME280;3130;41.564;23.280;2023-12-07T09:15:46;98649.16;;;12.21;nan
6194;BME280;3130;41.564;23.280;2023-12-07T09:18:13;98642.66;;;11.93;nan
6194;BME280;3130;41.564;23.280;2023-12-07T09:20:42;98646.00;;;12.05;nan
6194;BME280;3130;41.564;23.280;2023-12-07T09:23:11;98650.19;;;12.19;nan
6194;BME280;3130;41.564;23.280;2023-12-07T09:25:40;98646.47;;;12.23;nan
6194;BME280;3130;41.564;23.280;2023-12-07T09:28:08;98633.31;;;11.92;nan
6194;BME280;3130;41.564;23.280;2023-12-07T09:30:35;98650.94;;;12.08;nan
6194;BME280;3130;41.564;23.280;2023-12-07T09:33:02;98640.97;;;12.16;nan
6194;BME280;3130;41.564;23.280;2023-12-07T09:35:29;98639.88;;;12.31;nan
6194;BME280;3130;41.564;23.280;2023-12-07T09:37:57;98639.09;;;12.18;nan
6194;BME280;3130;41.564;23.280;2023-12-07T09:40:25;98635.31;;;12.11;nan
6194;BME280;3130;41.564;23.280;2023-12-07T09:42:53;98631.84;;;12.00;nan
6194;BME280;3130;41.564;23.280;2023-12-07T09:45:21;98621.59;;;11.88;nan
6194;BME280;3130;41.564;23.280;2023-12-07T09:47:50;98498.13;;;11.06;nan
6194;BME280;3130;41.564;23.280;2023-12-07T09:50:19;98618.75;;;11.80;nan
6194;BME280;3130;41.564;23.280;2023-12-07T09:52:48;98606.25;;;11.75;nan
6194;BME280;3130;41.564;23.280;2023-12-07T09:55:18;98608.38;;;11.69;nan
6194;BME280;3130;41.564;23.280;2023-12-07T09:57:46;98599.66;;;11.84;nan
6194;BME280;3130;41.564;23.280;2023-12-07T10:00:14;98594.22;;;11.63;nan
6194;BME280;3130;41.564;23.280;2023-12-07T10:02:42;98572.66;;;11.66;nan
6194;BME280;3130;41.564;23.280;2023-12-07T10:05:10;98597.88;;;11.84;nan
6194;BME280;3130;41.564;23.280;2023-12-07T10:07:40;98591.06;;;11.96;nan
6194;BME280;3130;41.564;23.280;2023-12-07T10:10:09;98575.47;;;11.86;nan
6194;BME280;3130;41.564;23.280;2023-12-07T10:12:46;98589.81;;;12.01;nan
6194;BME280;3130;41.564;23.280;2023-12-07T10:15:14;98558.38;;;11.98;nan
6194;BME280;3130;41.564;23.280;2023-12-07T10:17:49;98577.16;;;12.21;nan
6194;BME280;3130;41.564;23.280;2023-12-07T10:20:17;98581.53;;;12.32;nan
6194;BME280;3130;41.564;23.280;2023-12-07T10:22:45;98574.75;;;12.54;nan
6194;BME280;3130;41.564;23.280;2023-12-07T10:25:13;98568.84;;;12.76;nan
6194;BME280;3130;41.564;23.280;2023-12-07T10:27:42;98538.75;;;12.54;nan
6194;BME280;3130;41.564;23.280;2023-12-07T10:30:11;98542.50;;;12.61;nan
6194;BME280;3130;41.564;23.280;2023-12-07T10:32:38;98564.28;;;12.79;nan
6194;BME280;3130;41.564;23.280;2023-12-07T10:35:07;98540.63;;;12.52;nan
6194;BME280;3130;41.564;23.280;2023-12-07T10:37:35;98565.47;;;12.86;nan
6194;BME280;3130;41.564;23.280;2023-12-07T10:40:04;98567.06;;;13.00;nan
6194;BME280;3130;41.564;23.280;2023-12-07T10:42:34;98557.69;;;12.99;nan
6194;BME280;3130;41.564;23.280;2023-12-07T10:45:06;98548.66;;;12.93;nan
6194;BME280;3130;41.564;23.280;2023-12-07T10:47:36;98552.81;;;12.72;nan
6194;BME280;3130;41.564;23.280;2023-12-07T10:50:06;98510.75;;;12.28;nan
6194;BME280;3130;41.564;23.280;2023-12-07T10:52:39;98508.25;;;12.26;nan
6194;BME280;3130;41.564;23.280;2023-12-07T10:55:14;98551.03;;;12.62;nan
6194;BME280;3130;41.564;23.280;2023-12-07T10:57:44;98541.97;;;12.80;nan
6194;BME280;3130;41.564;23.280;2023-12-07T11:00:14;98539.97;;;12.83;nan
6194;BME280;3130;41.564;23.280;2023-12-07T11:02:42;98513.88;;;12.77;nan
6194;BME280;3130;41.564;23.280;2023-12-07T11:05:11;98537.78;;;12.90;nan
6194;BME280;3130;41.564;23.280;2023-12-07T11:07:47;98504.06;;;12.82;nan
6194;BME280;3130;41.564;23.280;2023-12-07T11:10:20;98469.56;;;12.73;nan
6194;BME280;3130;41.564;23.280;2023-12-07T11:12:56;98532.75;;;13.10;nan
6194;BME280;3130;41.564;23.280;2023-12-07T11:15:29;98527.03;;;13.07;nan
6194;BME280;3130;41.564;23.280;2023-12-07T11:17:56;98525.81;;;12.89;nan
6194;BME280;3130;41.564;23.280;2023-12-07T11:20:32;98521.78;;;13.19;nan
6194;BME280;3130;41.564;23.280;2023-12-07T11:23:07;98492.97;;;13.14;nan
6194;BME280;3130;41.564;23.280;2023-12-07T11:25:35;98514.66;;;13.33;nan
6194;BME280;3130;41.564;23.280;2023-12-07T11:28:03;98516.25;;;13.45;nan
6194;BME280;3130;41.564;23.280;2023-12-07T11:30:35;98508.16;;;13.50;nan
6194;BME280;3130;41.564;23.280;2023-12-07T11:33:04;98503.63;;;13.42;nan
6194;BME280;3130;41.564;23.280;2023-12-07T11:35:31;98498.59;;;13.30;nan
6194;BME280;3130;41.564;23.280;2023-12-07T11:38:06;98492.88;;;13.15;nan
6194;BME280;3130;41.564;23.280;2023-12-07T11:40:38;98505.75;;;13.26;nan
6194;BME280;3130;41.564;23.280;2023-12-07T11:43:07;98485.41;;;13.12;nan
6194;BME280;3130;41.564;23.280;2023-12-07T11:45:41;98490.88;;;12.97;nan
6194;BME280;3130;41.564;23.280;2023-12-07T11:48:10;98489.28;;;12.51;nan
6194;BME280;3130;41.564;23.280;2023-12-07T11:50:56;98499.13;;;12.57;nan
6194;BME280;3130;41.564;23.280;2023-12-07T11:53:25;98493.53;;;12.63;nan
6194;BME280;3130;41.564;23.280;2023-12-07T11:55:53;98489.06;;;12.54;nan
6194;BME280;3130;41.564;23.280;2023-12-07T11:58:21;98460.97;;;12.40;nan
6194;BME280;3130;41.564;23.280;2023-12-07T12:00:51;98488.75;;;12.69;nan
6194;BME280;3130;41.564;23.280;2023-12-07T12:03:19;98448.97;;;12.51;nan
6194;BME280;3130;41.564;23.280;2023-12-07T12:05:46;98479.28;;;12.81;nan
6194;BME280;3130;41.564;23.280;2023-12-07T12:08:15;98486.38;;;12.77;nan
6194;BME280;3130;41.564;23.280;2023-12-07T12:10:43;98484.28;;;12.82;nan
6194;BME280;3130;41.564;23.280;2023-12-07T12:13:10;98466.38;;;12.70;nan
6194;BME280;3130;41.564;23.280;2023-12-07T12:15:38;98481.69;;;12.60;nan
6194;BME280;3130;41.564;23.280;2023-12-07T12:18:08;98479.34;;;12.57;nan
6194;BME280;3130;41.564;23.280;2023-12-07T12:20:35;98482.13;;;12.43;nan
6194;BME280;3130;41.564;23.280;2023-12-07T12:23:03;98466.34;;;12.37;nan
6194;BME280;3130;41.564;23.280;2023-12-07T12:25:30;98477.34;;;12.50;nan
6194;BME280;3130;41.564;23.280;2023-12-07T12:28:02;98469.31;;;12.54;nan
6194;BME280;3130;41.564;23.280;2023-12-07T12:30:30;98471.44;;;12.71;nan
6194;BME280;3130;41.564;23.280;2023-12-07T12:32:57;98462.66;;;12.85;nan
6194;BME280;3130;41.564;23.280;2023-12-07T12:35:27;98475.03;;;12.69;nan
6194;BME280;3130;41.564;23.280;2023-12-07T12:37:54;98476.81;;;12.79;nan
6194;BME280;3130;41.564;23.280;2023-12-07T12:40:23;98479.81;;;12.62;nan
6194;BME280;3130;41.564;23.280;2023-12-07T12:42:52;98473.97;;;12.15;nan
6194;BME280;3130;41.564;23.280;2023-12-07T12:45:19;98471.53;;;12.13;nan
6194;BME280;3130;41.564;23.280;2023-12-07T12:47:47;98468.19;;;12.35;nan
6194;BME280;3130;41.564;23.280;2023-12-07T12:50:34;98471.13;;;12.41;nan
6194;BME280;3130;41.564;23.280;2023-12-07T12:53:03;98458.13;;;12.32;nan
6194;BME280;3130;41.564;23.280;2023-12-07T12:55:33;98424.97;;;12.29;nan
6194;BME280;3130;41.564;23.280;2023-12-07T12:58:00;98474.31;;;12.67;nan
6194;BME280;3130;41.564;23.280;2023-12-07T13:00:29;98472.59;;;12.78;nan
6194;BME280;3130;41.564;23.280;2023-12-07T13:02:58;98472.72;;;12.77;nan
6194;BME280;3130;41.564;23.280;2023-12-07T13:05:25;98444.03;;;12.59;nan
6194;BME280;3130;41.564;23.280;2023-12-07T13:07:54;98419.84;;;12.40;nan
6194;BME280;3130;41.564;23.280;2023-12-07T13:10:22;98471.53;;;12.59;nan
6194;BME280;3130;41.564;23.280;2023-12-07T13:12:49;98476.09;;;12.55;nan
6194;BME280;3130;41.564;23.280;2023-12-07T13:15:17;98485.19;;;12.48;nan
6194;BME280;3130;41.564;23.280;2023-12-07T13:17:44;98480.13;;;12.36;nan
6194;BME280;3130;41.564;23.280;2023-12-07T13:20:12;98483.41;;;12.38;nan
6194;BME280;3130;41.564;23.280;2023-12-07T13:22:40;98481.31;;;12.43;nan
6194;BME280;3130;41.564;23.280;2023-12-07T13:25:10;98488.91;;;12.44;nan
6194;BME280;3130;41.564;23.280;2023-12-07T13:27:37;98439.63;;;12.05;nan
6194;BME280;3130;41.564;23.280;2023-12-07T13:30:06;98463.03;;;12.24;nan
6194;BME280;3130;41.564;23.280;2023-12-07T13:32:35;98491.97;;;12.38;nan
6194;BME280;3130;41.564;23.280;2023-12-07T13:35:07;98488.81;;;12.46;nan
6194;BME280;3130;41.564;23.280;2023-12-07T13:37:34;98497.13;;;12.49;nan
6194;BME280;3130;41.564;23.280;2023-12-07T13:40:02;98495.25;;;12.51;nan
6194;BME280;3130;41.564;23.280;2023-12-07T13:42:31;98495.09;;;12.42;nan
6194;BME280;3130;41.564;23.280;2023-12-07T13:44:59;98498.25;;;12.34;nan